Time;durP1;ratioP1;P1;durP2;ratioP2;P2;SDS_P1;SDS_P2;PMS_P1;PMS_P2;Temp;Humidity;BMP_temperature;BMP_pressure;BME280_temperature;BME280_humidity;BME280_pressure;Samples;Min_cycle;Max_cycle;Signal;HPM_P1;HPM_P2
2020/12/02 00:00:54;;;;;;;41.80;34.50;;;;;;;8.12;58.49;102200.00;6222392;28;20222;-61
2020/12/02 00:04:16;;;;;;;41.87;34.30;;;;;;;8.15;58.58;102196.63;6219354;28;20811;-63
2020/12/02 00:07:37;;;;;;;46.57;35.63;;;;;;;8.04;58.47;102202.41;6217303;28;20229;-63
2020/12/02 00:10:58;;;;;;;44.07;34.17;;;;;;;8.10;58.77;102199.09;6214663;28;20221;-62
2020/12/02 00:14:24;;;;;;;45.20;35.37;;;;;;;8.03;59.02;102208.47;6218899;28;20232;-62
2020/12/02 00:18:12;;;;;;;48.77;38.10;;;;;;;8.02;58.77;102200.66;6212297;28;20247;-63
2020/12/02 00:21:33;;;;;;;47.43;36.20;;;;;;;7.94;58.75;102210.84;6209533;28;20739;-62
2020/12/02 00:24:54;;;;;;;43.73;34.20;;;;;;;7.86;59.09;102208.06;6221237;28;20224;-62
2020/12/02 00:28:14;;;;;;;42.60;34.60;;;;;;;7.98;59.31;102212.66;6216806;28;20232;-63
2020/12/02 00:31:35;;;;;;;45.13;34.90;;;;;;;8.03;58.80;102210.19;6219963;28;20229;-63
2020/12/02 00:34:57;;;;;;;43.67;34.97;;;;;;;8.01;59.17;102217.94;6218142;28;20603;-62
2020/12/02 00:38:19;;;;;;;44.93;34.53;;;;;;;8.07;58.89;102214.63;6221380;28;22180;-63
2020/12/02 00:41:39;;;;;;;47.67;36.77;;;;;;;8.11;58.61;102212.97;6217495;28;20593;-62
2020/12/02 00:45:00;;;;;;;44.63;34.90;;;;;;;8.11;58.63;102207.78;6244301;28;20237;-62
2020/12/02 00:48:23;;;;;;;46.30;36.10;;;;;;;8.08;58.83;102212.06;6217763;28;20311;-63
2020/12/02 00:51:45;;;;;;;44.87;34.23;;;;;;;8.05;58.49;102211.97;6242827;28;20233;-62
2020/12/02 00:55:06;;;;;;;46.47;36.97;;;;;;;8.04;58.73;102211.94;6246936;28;20236;-63
2020/12/02 00:58:41;;;;;;;42.57;33.93;;;;;;;8.07;58.58;102212.88;6222625;28;20370;-63
2020/12/02 01:02:06;;;;;;;42.90;33.23;;;;;;;8.15;58.43;102212.19;6218732;28;20643;-63
2020/12/02 01:05:27;;;;;;;42.67;33.70;;;;;;;8.15;58.29;102214.78;6226032;28;20315;-63
2020/12/02 01:08:50;;;;;;;39.33;32.57;;;;;;;8.18;58.29;102214.84;6222991;28;20260;-63
2020/12/02 01:12:17;;;;;;;45.17;35.33;;;;;;;8.18;58.31;102217.44;6220229;28;20225;-63
2020/12/02 01:15:38;;;;;;;43.83;33.50;;;;;;;8.21;58.14;102212.34;6209354;28;20332;-63
2020/12/02 01:19:02;;;;;;;46.37;36.30;;;;;;;8.06;58.58;102199.88;6220101;28;20237;-63
2020/12/02 01:22:27;;;;;;;41.63;34.27;;;;;;;8.11;58.34;102207.78;6221205;28;20315;-63
2020/12/02 01:25:51;;;;;;;43.40;34.33;;;;;;;8.04;58.50;102205.00;6219813;28;20244;-63
2020/12/02 01:29:15;;;;;;;42.07;34.23;;;;;;;7.91;58.78;102199.50;6222259;28;20225;-63
2020/12/02 01:32:36;;;;;;;45.40;35.27;;;;;;;7.89;59.04;102202.09;6221364;28;20237;-62
2020/12/02 01:35:57;;;;;;;44.40;35.47;;;;;;;7.99;58.71;102201.47;6213749;28;20613;-63
2020/12/02 01:39:17;;;;;;;42.77;33.87;;;;;;;8.04;58.69;102194.63;6210239;28;20229;-62
2020/12/02 01:42:40;;;;;;;43.33;34.70;;;;;;;8.03;58.51;102200.69;6212130;28;20662;-63
2020/12/02 01:46:13;;;;;;;43.17;32.77;;;;;;;8.01;58.52;102197.19;6215074;28;20236;-63
2020/12/02 01:49:42;;;;;;;44.17;34.73;;;;;;;7.94;58.93;102200.47;6214720;28;20249;-63
2020/12/02 01:53:09;;;;;;;43.57;35.37;;;;;;;7.99;58.66;102188.47;6210115;28;20228;-62
2020/12/02 01:56:36;;;;;;;45.30;35.40;;;;;;;8.03;58.45;102192.91;6189229;28;20230;-63
2020/12/02 02:00:08;;;;;;;42.37;35.23;;;;;;;7.95;58.78;102186.66;6214080;28;20260;-62
2020/12/02 02:03:36;;;;;;;44.53;35.50;;;;;;;7.98;58.68;102178.06;6212543;28;20252;-62
2020/12/02 02:07:07;;;;;;;42.23;33.93;;;;;;;7.99;58.53;102175.50;6206020;28;20233;-63
2020/12/02 02:10:32;;;;;;;47.80;34.57;;;;;;;8.04;58.51;102183.41;6189115;28;20237;-63
2020/12/02 02:14:20;;;;;;;41.83;35.00;;;;;;;8.04;58.61;102181.66;6191187;28;20583;-63
2020/12/02 02:17:41;;;;;;;46.63;34.57;;;;;;;8.06;58.33;102176.53;6210575;28;20260;-62
2020/12/02 02:21:05;;;;;;;43.57;34.40;;;;;;;8.06;58.29;102174.81;6211987;28;20233;-62
2020/12/02 02:24:26;;;;;;;46.77;36.73;;;;;;;8.06;58.35;102177.41;6212122;28;20229;-64
2020/12/02 02:27:48;;;;;;;41.43;33.50;;;;;;;8.08;58.57;102177.44;6215817;28;20228;-63
2020/12/02 02:31:14;;;;;;;44.03;34.83;;;;;;;8.06;58.35;102179.13;6213256;28;20721;-63
2020/12/02 02:34:38;;;;;;;41.30;31.47;;;;;;;7.99;58.72;102166.88;6212108;28;20251;-63
2020/12/02 02:37:59;;;;;;;45.27;35.40;;;;;;;8.00;58.46;102164.28;6210553;28;20253;-63
2020/12/02 02:41:20;;;;;;;45.67;36.87;;;;;;;7.88;58.95;102158.81;6212903;28;20229;-64
2020/12/02 02:44:42;;;;;;;41.80;34.10;;;;;;;7.96;58.72;102157.28;6211396;28;21082;-63
2020/12/02 02:48:06;;;;;;;48.83;35.83;;;;;;;8.04;58.77;102154.84;6212194;28;20229;-61
2020/12/02 02:51:26;;;;;;;47.43;35.13;;;;;;;7.98;58.69;102153.00;6210553;28;20237;-63
2020/12/02 02:54:47;;;;;;;45.53;35.87;;;;;;;7.97;58.43;102151.25;6215433;28;20726;-62
2020/12/02 02:58:07;;;;;;;41.73;33.40;;;;;;;8.06;58.19;102147.97;6202049;28;20236;-64
2020/12/02 03:01:29;;;;;;;41.50;33.97;;;;;;;7.85;58.87;102153.53;6211481;28;20315;-62
2020/12/02 03:04:49;;;;;;;39.40;31.37;;;;;;;7.90;58.76;102151.94;6215665;28;20389;-63
2020/12/02 03:08:11;;;;;;;42.27;34.53;;;;;;;7.95;58.71;102152.94;6210007;28;20511;-62
2020/12/02 03:11:32;;;;;;;41.20;32.93;;;;;;;8.03;58.20;102143.59;6211220;28;20224;-62
2020/12/02 03:14:54;;;;;;;42.27;34.03;;;;;;;8.03;58.33;102147.94;6214441;28;20252;-63
2020/12/02 03:18:16;;;;;;;40.70;32.60;;;;;;;8.04;58.31;102145.34;6213662;28;20677;-61
2020/12/02 03:21:36;;;;;;;38.77;32.97;;;;;;;8.03;58.28;102138.41;6213286;28;20720;-62
2020/12/02 03:24:57;;;;;;;39.73;32.67;;;;;;;8.02;58.31;102143.56;6210188;28;20237;-63
2020/12/02 03:28:19;;;;;;;49.23;36.23;;;;;;;8.05;58.44;102149.72;6211571;28;20327;-63
2020/12/02 03:31:40;;;;;;;38.20;32.80;;;;;;;8.03;58.29;102148.78;6214311;28;20241;-63
2020/12/02 03:35:02;;;;;;;40.83;32.67;;;;;;;7.96;58.50;102135.66;6213577;28;20610;-64
2020/12/02 03:38:24;;;;;;;42.17;34.80;;;;;;;7.97;58.46;102143.47;6211665;28;20656;-63
2020/12/02 03:41:45;;;;;;;42.23;33.60;;;;;;;7.98;58.33;102140.03;6208413;28;20240;-63
2020/12/02 03:45:07;;;;;;;43.20;34.43;;;;;;;7.87;58.70;102144.06;6210662;28;20227;-63
2020/12/02 03:48:27;;;;;;;40.83;33.37;;;;;;;7.97;58.49;102140.88;6211095;28;20240;-63
2020/12/02 03:51:49;;;;;;;39.90;33.83;;;;;;;7.99;58.37;102136.59;6217718;28;20233;-63
2020/12/02 03:55:11;;;;;;;38.47;33.13;;;;;;;8.01;58.30;102134.91;6216741;28;20367;-63
2020/12/02 03:58:31;;;;;;;45.83;34.97;;;;;;;7.95;58.45;102132.19;6218604;28;20233;-63
2020/12/02 04:01:51;;;;;;;41.17;33.00;;;;;;;8.01;58.51;102129.72;6217583;28;20224;-63
2020/12/02 04:05:12;;;;;;;41.40;33.67;;;;;;;7.91;58.58;102125.19;6215962;28;20495;-63
2020/12/02 04:08:33;;;;;;;41.93;33.90;;;;;;;7.96;58.53;102131.34;6227125;28;20221;-64
2020/12/02 04:11:54;;;;;;;37.53;31.40;;;;;;;8.06;59.10;102129.81;6216627;28;20229;-63
2020/12/02 04:15:15;;;;;;;45.13;35.43;;;;;;;8.18;59.11;102126.63;6205685;28;20235;-63
2020/12/02 04:18:35;;;;;;;41.93;33.57;;;;;;;8.17;58.53;102120.56;6217686;28;20645;-64
2020/12/02 04:21:56;;;;;;;41.60;32.80;;;;;;;8.01;58.36;102127.13;6218031;28;20316;-61
2020/12/02 04:25:18;;;;;;;44.40;33.93;;;;;;;7.93;58.66;102126.09;6218286;28;20840;-63
2020/12/02 04:28:38;;;;;;;40.27;32.67;;;;;;;7.93;58.44;102113.13;6216415;28;20673;-65
2020/12/02 04:31:59;;;;;;;41.40;31.90;;;;;;;7.83;58.70;102108.53;6221777;28;20229;-63
2020/12/02 04:35:20;;;;;;;37.57;31.30;;;;;;;7.90;58.51;102107.84;6218535;28;20240;-64
2020/12/02 04:38:40;;;;;;;40.63;32.17;;;;;;;7.98;58.24;102108.88;6208940;28;20245;-63
2020/12/02 04:42:01;;;;;;;39.57;34.13;;;;;;;7.91;58.41;102106.13;6219302;28;20501;-63
2020/12/02 04:45:22;;;;;;;36.47;31.40;;;;;;;7.99;58.30;102107.19;6216754;28;20229;-63
2020/12/02 04:48:45;;;;;;;41.97;33.13;;;;;;;8.00;58.38;102107.19;6217969;28;20228;-63
2020/12/02 04:52:11;;;;;;;39.97;31.77;;;;;;;8.02;58.22;102102.06;6214863;28;20237;-63
2020/12/02 04:55:32;;;;;;;40.97;33.00;;;;;;;7.94;58.39;102109.66;6214464;28;20793;-63
2020/12/02 04:58:55;;;;;;;39.70;30.97;;;;;;;7.94;58.51;102103.63;6216526;28;20253;-63
2020/12/02 05:02:26;;;;;;;39.53;32.77;;;;;;;7.98;58.28;102103.69;6218434;28;20249;-63
2020/12/02 05:05:46;;;;;;;38.30;30.37;;;;;;;7.89;58.50;102103.53;6218009;28;20245;-63
2020/12/02 05:09:11;;;;;;;39.87;31.60;;;;;;;7.87;58.08;102100.88;6191824;28;20611;-63
2020/12/02 05:12:37;;;;;;;39.37;31.07;;;;;;;7.69;58.57;102098.72;6212402;28;20707;-63
2020/12/02 05:16:07;;;;;;;42.83;33.27;;;;;;;7.81;58.52;102092.97;6217103;28;20229;-63
2020/12/02 05:19:27;;;;;;;40.87;33.47;;;;;;;7.81;58.51;102089.47;6213453;28;20236;-63
2020/12/02 05:22:51;;;;;;;40.30;33.40;;;;;;;7.73;58.65;102094.50;6213721;28;20229;-64
2020/12/02 05:26:17;;;;;;;38.27;30.47;;;;;;;7.86;58.51;102093.06;6215600;28;20256;-62
2020/12/02 05:29:44;;;;;;;40.50;32.77;;;;;;;7.95;58.61;102093.28;6221234;28;20687;-62
2020/12/02 05:33:20;;;;;;;37.13;30.30;;;;;;;7.99;58.13;102102.00;6219241;28;20260;-63
2020/12/02 05:36:46;;;;;;;36.63;31.10;;;;;;;7.86;58.29;102104.31;6217960;28;20232;-63
2020/12/02 05:40:14;;;;;;;38.57;31.00;;;;;;;7.89;58.42;102098.34;6220720;28;20627;-63
2020/12/02 05:43:39;;;;;;;35.07;29.37;;;;;;;7.81;58.52;102100.75;6197689;28;20248;-62
2020/12/02 05:47:06;;;;;;;39.33;32.57;;;;;;;7.80;58.37;102098.97;6217059;28;20233;-63
2020/12/02 05:50:27;;;;;;;40.83;32.10;;;;;;;7.84;58.23;102099.94;6218695;28;20610;-62
2020/12/02 05:53:51;;;;;;;39.60;31.87;;;;;;;7.84;58.21;102095.63;6219173;28;20311;-63
2020/12/02 05:57:15;;;;;;;39.07;31.30;;;;;;;7.92;58.18;102090.59;6195006;28;20233;-63
2020/12/02 06:00:36;;;;;;;38.88;31.42;;;;;;;7.92;58.05;102085.41;6216688;28;21039;-63
2020/12/02 06:03:58;;;;;;;37.40;30.57;;;;;;;7.74;58.39;102085.00;6219346;28;20233;-63
2020/12/02 06:07:20;;;;;;;37.67;30.77;;;;;;;7.54;58.59;102084.53;6222962;28;20823;-63
2020/12/02 06:11:18;;;;;;;36.63;30.53;;;;;;;7.60;58.58;102075.19;6198351;28;20236;-62
2020/12/02 06:14:39;;;;;;;38.23;30.97;;;;;;;7.73;58.45;102080.66;6197792;28;20229;-63
2020/12/02 06:18:14;;;;;;;34.57;28.97;;;;;;;7.80;58.18;102082.56;6217237;28;20221;-63
2020/12/02 06:21:40;;;;;;;38.63;31.43;;;;;;;7.68;58.51;102077.97;6207482;28;20240;-63
2020/12/02 06:25:01;;;;;;;36.27;29.53;;;;;;;7.68;58.24;102077.97;6221867;28;20232;-62
2020/12/02 06:28:46;;;;;;;35.10;30.93;;;;;;;7.84;58.14;102080.06;6221727;28;20224;-63
2020/12/02 06:32:12;;;;;;;38.20;29.87;;;;;;;7.81;58.06;102090.38;6217095;28;20319;-63
2020/12/02 06:35:32;;;;;;;38.00;30.27;;;;;;;7.83;58.01;102087.78;6220146;28;20228;-62
2020/12/02 06:38:55;;;;;;;37.07;30.77;;;;;;;7.71;58.00;102083.22;6218636;28;20224;-61
2020/12/02 06:42:31;;;;;;;37.20;31.07;;;;;;;7.71;58.14;102088.41;6217064;28;20268;-64
2020/12/02 06:45:51;;;;;;;36.40;29.53;;;;;;;7.76;57.90;102083.34;6218424;28;20735;-63
2020/12/02 06:49:13;;;;;;;34.43;28.23;;;;;;;7.81;57.70;102084.28;6217806;28;20625;-64
2020/12/02 06:52:36;;;;;;;37.13;30.33;;;;;;;7.87;57.75;102080.13;6221340;28;20308;-64
2020/12/02 06:55:58;;;;;;;40.30;30.57;;;;;;;7.86;57.54;102082.69;6220874;28;20228;-64
2020/12/02 06:59:19;;;;;;;36.47;30.23;;;;;;;7.93;57.51;102086.28;6215908;28;20611;-64
2020/12/02 07:02:44;;;;;;;38.28;34.33;;;;;;;7.72;58.28;102078.91;6220610;28;20918;-61
2020/12/02 07:06:09;;;;;;;38.10;30.30;;;;;;;7.30;58.85;102080.50;6221705;28;20220;-66
2020/12/02 07:09:33;;;;;;;33.97;28.90;;;;;;;7.63;58.04;102083.03;6218028;28;20240;-62
2020/12/02 07:12:54;;;;;;;35.50;30.80;;;;;;;7.72;57.68;102084.97;6218847;28;20236;-62
2020/12/02 07:16:26;;;;;;;33.47;28.20;;;;;;;7.74;57.57;102078.09;6217846;28;20262;-64
2020/12/02 07:19:48;;;;;;;36.57;28.53;;;;;;;7.89;57.16;102070.66;6218910;28;20382;-64
2020/12/02 07:23:08;;;;;;;36.13;28.63;;;;;;;7.94;57.33;102065.56;6215612;28;20225;-66
2020/12/02 07:26:30;;;;;;;36.67;30.30;;;;;;;7.98;57.00;102066.50;6216491;28;20240;-61
2020/12/02 07:29:56;;;;;;;36.73;29.77;;;;;;;7.99;56.85;102058.78;6219594;28;20273;-67
2020/12/02 07:33:24;;;;;;;36.70;28.30;;;;;;;7.99;56.90;102057.91;6220558;28;20255;-62
2020/12/02 07:36:45;;;;;;;35.33;28.67;;;;;;;7.97;57.21;102056.97;6222344;28;20467;-61
2020/12/02 07:40:19;;;;;;;35.37;30.13;;;;;;;7.95;57.13;102062.16;6219964;28;20237;-65
2020/12/02 07:43:43;;;;;;;36.67;30.00;;;;;;;7.97;57.11;102060.47;6219571;28;20233;-64
2020/12/02 07:47:07;;;;;;;33.70;27.70;;;;;;;7.95;57.23;102066.44;6211588;28;20229;-61
2020/12/02 07:50:33;;;;;;;37.30;29.97;;;;;;;7.85;57.31;102054.97;6218233;28;20229;-64
2020/12/02 07:53:57;;;;;;;32.93;27.70;;;;;;;7.93;57.03;102050.88;6210975;28;20726;-63
2020/12/02 07:57:18;;;;;;;37.03;28.70;;;;;;;7.81;57.39;102053.16;6217325;28;20236;-63
2020/12/02 08:00:44;;;;;;;32.23;27.80;;;;;;;7.80;57.50;102060.09;6215825;28;20224;-63
2020/12/02 08:04:14;;;;;;;35.07;28.07;;;;;;;7.60;58.03;102051.88;6217919;28;20783;-64
2020/12/02 08:07:57;;;;;;;34.97;29.57;;;;;;;7.61;57.79;102045.81;6218932;28;21048;-63
2020/12/02 08:11:19;;;;;;;35.20;28.80;;;;;;;7.63;57.42;102045.88;6218113;28;20241;-66
2020/12/02 08:14:42;;;;;;;37.90;30.37;;;;;;;7.55;58.09;102045.69;6217698;28;20704;-63
2020/12/02 08:18:14;;;;;;;33.60;27.57;;;;;;;7.59;58.21;102046.63;6212329;28;20609;-64
2020/12/02 08:21:35;;;;;;;36.50;28.50;;;;;;;7.63;57.81;102033.78;6211488;28;20613;-64
2020/12/02 08:25:16;;;;;;;32.70;26.17;;;;;;;7.67;57.32;102030.41;6213698;28;20225;-62
2020/12/02 08:28:40;;;;;;;33.50;27.73;;;;;;;7.45;58.13;102030.78;6213998;28;21039;-63
2020/12/02 08:32:06;;;;;;;33.67;28.60;;;;;;;7.28;58.37;102028.66;6211517;28;20233;-65
2020/12/02 08:35:31;;;;;;;35.97;29.17;;;;;;;7.59;58.04;102019.00;6216184;28;20623;-65
2020/12/02 08:38:52;;;;;;;31.73;26.57;;;;;;;7.75;57.71;102017.59;6211168;28;20326;-64
2020/12/02 08:42:22;;;;;;;32.40;27.13;;;;;;;7.77;57.37;102007.28;6198388;28;20237;-65
2020/12/02 08:45:53;;;;;;;32.03;26.33;;;;;;;7.78;57.41;102011.63;6188127;28;20274;-65
2020/12/02 08:49:14;;;;;;;36.73;27.30;;;;;;;7.76;57.28;102006.41;6187742;28;20233;-64
2020/12/02 08:52:34;;;;;;;31.00;26.30;;;;;;;7.91;57.16;101998.09;6189363;28;20234;-64
2020/12/02 08:55:56;;;;;;;31.90;25.87;;;;;;;8.02;56.81;102001.75;6185545;28;20229;-64
2020/12/02 08:59:17;;;;;;;36.03;27.07;;;;;;;8.11;56.63;101995.88;6206463;28;20244;-66
2020/12/02 09:02:38;;;;;;;33.90;27.43;;;;;;;8.12;56.39;101999.34;6211176;28;20237;-62
2020/12/02 09:05:58;;;;;;;32.50;24.90;;;;;;;8.13;56.33;101999.38;6214759;28;20534;-64
2020/12/02 09:09:19;;;;;;;37.83;27.10;;;;;;;8.17;56.31;101995.13;6208652;28;20225;-63
2020/12/02 09:12:39;;;;;;;32.93;27.90;;;;;;;8.01;56.32;101992.22;6213714;28;20236;-62
2020/12/02 09:16:00;;;;;;;31.43;26.33;;;;;;;7.90;56.69;101991.13;6219938;28;20248;-63
2020/12/02 09:19:21;;;;;;;30.83;27.40;;;;;;;7.96;56.54;101985.19;6218756;28;20221;-64
2020/12/02 09:22:42;;;;;;;34.33;27.47;;;;;;;7.82;56.74;101984.91;6213934;28;20236;-64
2020/12/02 09:26:03;;;;;;;32.73;28.77;;;;;;;7.67;56.81;101978.53;6218959;28;20233;-63
2020/12/02 09:29:23;;;;;;;35.20;27.93;;;;;;;7.37;57.53;101983.06;6210791;28;20245;-64
2020/12/02 09:32:43;;;;;;;31.80;27.00;;;;;;;7.29;57.19;101975.13;6219565;28;20236;-66
2020/12/02 09:36:05;;;;;;;34.13;30.10;;;;;;;7.49;57.54;101968.66;6217217;28;20232;-66
2020/12/02 09:39:27;;;;;;;34.73;28.77;;;;;;;7.13;58.02;101966.09;6188755;28;20237;-67
2020/12/02 09:43:15;;;;;;;32.30;27.73;;;;;;;7.26;57.63;101962.09;6214425;28;20243;-62
2020/12/02 09:46:41;;;;;;;31.83;27.37;;;;;;;7.25;57.59;101963.81;6194055;28;20579;-61
2020/12/02 09:50:01;;;;;;;34.57;28.70;;;;;;;7.37;57.33;101959.75;6198994;28;20237;-61
2020/12/02 09:53:24;;;;;;;31.93;28.47;;;;;;;7.22;57.52;101953.38;6193795;28;20236;-66
2020/12/02 09:56:45;;;;;;;31.30;27.80;;;;;;;7.32;56.83;101948.41;6211009;28;20233;-61
2020/12/02 10:00:10;;;;;;;30.77;26.93;;;;;;;7.57;56.99;101945.50;6214073;28;20241;-62
2020/12/02 10:04:14;;;;;;;31.37;28.03;;;;;;;7.54;56.47;101929.91;6214006;28;20316;-61
2020/12/02 10:07:52;;;;;;;35.07;29.17;;;;;;;7.08;57.71;101924.56;6211745;28;20233;-64
2020/12/02 10:11:22;;;;;;;34.40;28.43;;;;;;;7.12;57.75;101922.91;6216834;28;20582;-62
2020/12/02 10:15:01;;;;;;;32.37;28.57;;;;;;;6.89;57.79;101922.38;6217002;28;20322;-62
2020/12/02 10:19:02;;;;;;;37.93;29.80;;;;;;;7.15;57.59;101910.00;6218241;28;20233;-65
2020/12/02 10:22:51;;;;;;;35.00;29.67;;;;;;;7.16;57.44;101905.72;6217043;28;20240;-61
2020/12/02 10:26:40;;;;;;;39.30;31.50;;;;;;;6.88;57.85;101895.63;6219803;28;20248;-61
2020/12/02 10:30:12;;;;;;;32.50;28.27;;;;;;;6.95;58.15;101883.66;6219506;28;20789;-62
2020/12/02 10:33:59;;;;;;;34.13;27.87;;;;;;;6.80;58.22;101881.59;6205153;28;20225;-62
2020/12/02 10:37:26;;;;;;;32.10;28.23;;;;;;;7.00;57.95;101878.59;6224611;28;20363;-61
2020/12/02 10:40:52;;;;;;;39.13;30.27;;;;;;;7.10;57.53;101865.00;6211515;28;20316;-67
2020/12/02 10:44:28;;;;;;;37.23;29.43;;;;;;;6.98;57.81;101857.84;6208568;28;20792;-63
2020/12/02 10:48:21;;;;;;;34.07;29.40;;;;;;;6.94;58.11;101852.56;6211485;28;20232;-63
2020/12/02 10:51:44;;;;;;;32.43;28.93;;;;;;;7.09;57.57;101837.34;6212149;28;20252;-63
2020/12/02 10:55:04;;;;;;;32.90;28.43;;;;;;;7.04;57.83;101828.63;6201089;28;20241;-63
2020/12/02 10:58:29;;;;;;;37.00;28.97;;;;;;;7.23;57.45;101833.34;6212484;28;20237;-63
2020/12/02 11:01:50;;;;;;;32.50;27.37;;;;;;;7.40;57.07;101822.44;6209880;28;22544;-62
2020/12/02 11:05:11;;;;;;;32.53;28.00;;;;;;;7.34;57.01;101820.59;6213849;28;20228;-63
2020/12/02 11:08:44;;;;;;;33.93;29.43;;;;;;;7.06;57.80;101812.25;6210552;28;20232;-63
2020/12/02 11:12:18;;;;;;;37.43;30.50;;;;;;;6.90;57.89;101811.06;6210971;28;20241;-64
2020/12/02 11:15:53;;;;;;;33.17;29.63;;;;;;;6.67;58.48;101817.44;6209801;28;20220;-64
2020/12/02 11:19:39;;;;;;;35.90;28.67;;;;;;;6.82;57.84;101802.22;6214611;28;20237;-65
2020/12/02 11:23:10;;;;;;;33.50;29.80;;;;;;;6.82;58.07;101802.22;6212316;28;20733;-65
2020/12/02 11:26:33;;;;;;;36.93;27.23;;;;;;;6.66;58.55;101797.56;6213586;28;20625;-65
2020/12/02 11:29:54;;;;;;;38.40;29.90;;;;;;;6.76;58.36;101796.06;6211857;28;20676;-64
2020/12/02 11:33:34;;;;;;;36.53;28.97;;;;;;;6.77;58.30;101788.34;6210592;28;20221;-64
2020/12/02 11:37:02;;;;;;;32.50;27.27;;;;;;;6.73;58.22;101781.34;6211533;28;20232;-64
2020/12/02 11:40:27;;;;;;;35.50;28.60;;;;;;;6.80;58.10;101772.84;6209454;28;20232;-63
2020/12/02 11:43:53;;;;;;;40.20;29.57;;;;;;;6.53;58.91;101761.88;6209550;28;20225;-62
2020/12/02 11:47:24;;;;;;;36.77;30.07;;;;;;;6.83;57.92;101754.78;6212137;28;20229;-66
2020/12/02 11:50:52;;;;;;;32.13;26.37;;;;;;;6.80;57.66;101757.31;6208792;28;20233;-61
2020/12/02 11:54:14;;;;;;;35.67;31.10;;;;;;;6.87;57.97;101764.38;6210011;28;20241;-65
2020/12/02 11:57:34;;;;;;;33.13;28.80;;;;;;;6.86;58.28;101754.88;6212845;28;20225;-62
2020/12/02 12:01:03;;;;;;;38.33;30.50;;;;;;;6.85;58.05;101758.28;6210789;28;20243;-65
2020/12/02 12:04:35;;;;;;;38.30;29.87;;;;;;;6.73;58.43;101749.38;6208320;28;20236;-64
2020/12/02 12:08:17;;;;;;;33.87;28.30;;;;;;;6.95;58.12;101737.78;6186141;28;20229;-61
2020/12/02 12:11:40;;;;;;;35.80;29.60;;;;;;;6.76;58.41;101744.28;6209221;28;20225;-61
2020/12/02 12:15:06;;;;;;;34.83;26.80;;;;;;;6.89;58.62;101735.94;6210395;28;20329;-62
2020/12/02 12:18:35;;;;;;;32.83;29.30;;;;;;;6.84;58.12;101722.91;6206772;28;20240;-59
2020/12/02 12:22:13;;;;;;;34.13;30.37;;;;;;;6.64;59.04;101724.19;6207067;28;20232;-61
2020/12/02 12:25:37;;;;;;;33.87;28.07;;;;;;;6.70;58.81;101713.94;6212029;28;20352;-64
2020/12/02 12:28:58;;;;;;;32.97;29.40;;;;;;;6.82;58.70;101702.97;6212748;28;20689;-64
2020/12/02 12:32:27;;;;;;;33.93;28.80;;;;;;;6.89;58.74;101705.72;6210644;28;20229;-68
2020/12/02 12:35:53;;;;;;;31.57;26.60;;;;;;;7.24;57.57;101697.75;6210009;28;20225;-69
2020/12/02 12:39:18;;;;;;;32.13;27.63;;;;;;;7.35;57.43;101692.78;6206919;28;21033;-67
2020/12/02 12:42:38;;;;;;;38.17;30.53;;;;;;;7.43;57.06;101683.44;6211062;28;20623;-64
2020/12/02 12:46:07;;;;;;;35.67;29.00;;;;;;;7.29;57.39;101680.59;6220559;28;20252;-61
2020/12/02 12:49:29;;;;;;;34.67;28.93;;;;;;;7.04;57.82;101673.22;6214691;28;20857;-62
2020/12/02 12:52:51;;;;;;;33.83;28.20;;;;;;;7.37;57.53;101661.72;6215649;28;20355;-71
2020/12/02 12:56:12;;;;;;;33.53;29.50;;;;;;;7.06;58.11;101658.56;6213621;28;20229;-65
2020/12/02 12:59:33;;;;;;;33.10;26.23;;;;;;;7.05;58.33;101655.09;6216127;28;20233;-63
2020/12/02 13:03:10;;;;;;;40.13;30.03;;;;;;;7.33;57.61;101653.03;6226678;28;20236;-64
2020/12/02 13:06:44;;;;;;;38.00;31.27;;;;;;;7.03;58.43;101645.56;6213483;28;20992;-62
2020/12/02 13:10:18;;;;;;;36.67;27.93;;;;;;;7.17;58.21;101644.09;6214918;28;20220;-63
2020/12/02 13:13:56;;;;;;;30.43;24.07;;;;;;;7.71;66.88;101641.53;6216602;28;20605;-61
2020/12/02 13:17:21;;;;;;;32.10;25.83;;;;;;;8.38;67.19;101626.94;6212169;28;20229;-62
2020/12/02 13:20:51;;;;;;;37.03;30.50;;;;;;;8.01;57.92;101629.03;6190826;28;20325;-64
2020/12/02 13:24:25;;;;;;;34.70;30.03;;;;;;;7.78;57.67;101630.44;6216060;28;20233;-62
2020/12/02 13:27:58;;;;;;;36.03;27.43;;;;;;;7.66;57.43;101624.19;6213693;28;20229;-63
2020/12/02 13:31:26;;;;;;;33.03;29.27;;;;;;;7.24;57.93;101626.94;6215655;28;20332;-59
2020/12/02 13:34:47;;;;;;;31.13;26.40;;;;;;;7.03;58.54;101619.66;6214247;28;20236;-60
2020/12/02 13:38:14;;;;;;;36.97;28.60;;;;;;;7.24;57.76;101608.81;6204206;28;20248;-61
2020/12/02 13:41:38;;;;;;;31.37;27.17;;;;;;;7.26;57.71;101605.38;6214378;28;20251;-62
2020/12/02 13:45:06;;;;;;;33.90;29.47;;;;;;;6.90;58.59;101603.91;6212859;28;20225;-64
2020/12/02 13:48:28;;;;;;;35.87;28.27;;;;;;;6.94;58.84;101609.13;6214844;28;20231;-62
2020/12/02 13:51:59;;;;;;;34.80;28.90;;;;;;;7.12;58.39;101609.47;6211591;28;20225;-63
2020/12/02 13:55:28;;;;;;;38.60;32.63;;;;;;;7.34;58.11;101609.84;6213735;28;20319;-61
2020/12/02 13:58:59;;;;;;;34.27;29.73;;;;;;;7.28;57.92;101606.28;6210164;28;20798;-66
2020/12/02 14:02:29;;;;;;;35.93;29.67;;;;;;;7.28;57.54;101614.06;6215303;28;20235;-62
2020/12/02 14:05:59;;;;;;;35.57;27.93;;;;;;;7.36;57.75;101608.16;6213321;28;20221;-62
2020/12/02 14:09:23;;;;;;;32.43;27.67;;;;;;;7.60;57.33;101602.47;6188075;28;20230;-61
2020/12/02 14:12:45;;;;;;;35.10;29.20;;;;;;;7.60;57.16;101598.19;6189436;28;20309;-59
2020/12/02 14:16:08;;;;;;;36.40;30.30;;;;;;;7.34;57.57;101602.06;6218096;28;20240;-55
2020/12/02 14:19:30;;;;;;;33.93;28.70;;;;;;;7.33;57.65;101597.72;6213520;28;20350;-57
2020/12/02 14:22:50;;;;;;;36.93;29.27;;;;;;;7.35;57.35;101594.31;6213313;28;20256;-58
2020/12/02 14:26:10;;;;;;;34.53;29.23;;;;;;;7.21;57.97;101586.31;6189448;28;20226;-58
2020/12/02 14:29:31;;;;;;;33.03;28.63;;;;;;;7.29;57.97;101582.13;6214667;28;20229;-61
2020/12/02 14:32:54;;;;;;;37.47;30.23;;;;;;;7.28;57.98;101574.34;6213852;28;20236;-62
2020/12/02 14:36:14;;;;;;;34.80;28.07;;;;;;;7.41;57.67;101575.41;6209778;28;20229;-61
2020/12/02 14:39:35;;;;;;;33.20;29.53;;;;;;;7.48;57.50;101569.47;6210601;28;20611;-62
2020/12/02 14:42:59;;;;;;;39.73;29.37;;;;;;;7.51;57.74;101566.94;6215138;28;20229;-61
2020/12/02 14:46:20;;;;;;;34.50;29.53;;;;;;;7.63;57.27;101561.06;6214705;28;20236;-67
2020/12/02 14:49:41;;;;;;;36.03;29.73;;;;;;;7.59;57.37;101556.69;6212533;28;20230;-61
2020/12/02 14:53:02;;;;;;;34.13;29.07;;;;;;;7.61;57.09;101557.56;6209875;28;20252;-67
2020/12/02 14:56:29;;;;;;;31.67;27.30;;;;;;;7.67;57.11;101563.69;6212862;28;20237;-64
2020/12/02 15:00:09;;;;;;;35.80;29.73;;;;;;;7.53;57.04;101559.19;6210747;28;20244;-64
2020/12/02 15:03:35;;;;;;;36.55;33.05;;;;;;;7.41;57.60;101555.53;6211000;28;20879;-60
2020/12/02 15:07:12;;;;;;;32.40;28.33;;;;;;;7.28;57.99;101544.09;6210317;28;20233;-60
2020/12/02 15:10:36;;;;;;;37.23;30.33;;;;;;;7.18;58.27;101547.41;6209413;28;20225;-58
2020/12/02 15:13:57;;;;;;;38.77;32.77;;;;;;;7.14;58.31;101555.97;6215681;28;20228;-57
2020/12/02 15:17:42;;;;;;;36.37;30.10;;;;;;;7.21;58.25;101544.88;6217058;28;20240;-58
2020/12/02 15:21:06;;;;;;;35.63;28.90;;;;;;;7.38;57.95;101547.72;6224535;28;20228;-59
2020/12/02 15:24:26;;;;;;;35.60;31.10;;;;;;;7.38;58.02;101536.47;6217538;28;20237;-60
2020/12/02 15:27:48;;;;;;;36.33;30.87;;;;;;;7.44;57.65;101523.63;6206382;28;20545;-59
2020/12/02 15:31:12;;;;;;;39.40;31.57;;;;;;;7.22;58.01;101512.91;6197857;28;20242;-58
2020/12/02 15:34:32;;;;;;;36.03;31.43;;;;;;;7.43;57.63;101504.59;6202111;28;20225;-59
2020/12/02 15:38:07;;;;;;;36.70;29.67;;;;;;;7.13;58.47;101510.19;6197945;28;20229;-59
2020/12/02 15:41:35;;;;;;;43.67;31.93;;;;;;;7.20;58.23;101512.03;6214196;28;20537;-57
2020/12/02 15:45:14;;;;;;;36.10;30.07;;;;;;;7.44;57.79;101502.88;6220253;28;20228;-60